createdAt,value
2019-04-04T00:02:00.350Z,9.38
2019-04-04T00:04:07.121Z,10.25
2019-04-04T00:06:13.863Z,8.58
2019-04-04T00:08:20.571Z,8.63
2019-04-04T00:10:27.340Z,7.67
2019-04-04T00:12:34.254Z,9.15
2019-04-04T00:14:43.479Z,8.10
2019-04-04T00:16:49.666Z,9.25
2019-04-04T00:18:58.431Z,9.68
2019-04-04T00:21:04.884Z,8.28
2019-04-04T00:23:11.671Z,8.83
2019-04-04T00:25:18.809Z,9.28
2019-04-04T00:27:25.740Z,9.23
2019-04-04T00:29:32.454Z,9.15
2019-04-04T00:31:39.198Z,8.83
2019-04-04T00:33:45.922Z,9.60
2019-04-04T00:35:53.468Z,9.33
2019-04-04T00:38:00.216Z,9.15
2019-04-04T00:40:10.782Z,8.90
2019-04-04T00:44:30.219Z,8.60
2019-04-04T00:46:36.885Z,9.00
2019-04-04T00:48:43.602Z,9.43
2019-04-04T00:50:50.247Z,8.20
2019-04-04T00:52:56.853Z,9.38
2019-04-04T00:55:03.457Z,9.43
2019-04-04T00:57:10.311Z,9.45
2019-04-04T00:59:16.956Z,8.43
2019-04-04T01:01:26.137Z,8.45
2019-04-04T01:03:32.009Z,9.45
2019-04-04T01:05:39.596Z,8.63
2019-04-04T01:07:46.365Z,7.40
2019-04-04T01:09:52.997Z,7.90
2019-04-04T01:12:00.013Z,8.68
2019-04-04T01:14:07.307Z,8.60
2019-04-04T01:16:14.114Z,9.03
2019-04-04T01:18:20.852Z,9.08
2019-04-04T01:20:27.593Z,9.13
2019-04-04T01:22:34.394Z,8.85
2019-04-04T01:24:41.134Z,8.35
2019-04-04T01:26:47.896Z,8.68
2019-04-04T01:28:54.601Z,9.15
2019-04-04T01:31:01.381Z,8.73
2019-04-04T01:33:08.125Z,8.88
2019-04-04T01:35:14.844Z,9.20
2019-04-04T01:37:21.530Z,9.58
2019-04-04T01:39:30.846Z,8.35
2019-04-04T01:41:37.048Z,8.28
2019-04-04T01:43:43.830Z,8.78
2019-04-04T01:45:52.047Z,8.95
2019-04-04T01:47:58.825Z,8.90
2019-04-04T01:50:06.774Z,9.28
2019-04-04T01:52:13.505Z,8.23
2019-04-04T01:54:20.212Z,8.85
2019-04-04T01:56:26.971Z,9.75
2019-04-04T01:58:33.710Z,8.73
2019-04-04T02:00:40.426Z,8.43
2019-04-04T02:02:47.230Z,9.30
2019-04-04T02:04:55.858Z,8.70
2019-04-04T02:07:06.232Z,8.75
2019-04-04T02:09:13.042Z,9.05
2019-04-04T02:11:20.003Z,9.50
2019-04-04T02:13:28.330Z,8.65
2019-04-04T02:15:35.070Z,9.87
2019-04-04T02:17:42.822Z,9.05
2019-04-04T02:19:49.489Z,9.23
2019-04-04T02:21:57.900Z,9.05
2019-04-04T02:24:04.623Z,9.10
2019-04-04T02:26:11.451Z,8.43
2019-04-04T02:28:18.217Z,8.65
2019-04-04T02:30:25.057Z,8.40
2019-04-04T02:32:31.760Z,9.05
2019-04-04T02:34:38.581Z,8.50
2019-04-04T02:36:48.723Z,9.23
2019-04-04T02:39:10.198Z,7.87
2019-04-04T02:41:16.922Z,8.20
2019-04-04T02:43:27.325Z,9.33
2019-04-04T02:45:32.138Z,9.40
2019-04-04T02:47:38.882Z,9.30
2019-04-04T02:49:45.626Z,9.05
2019-04-04T02:51:52.395Z,8.90
2019-04-04T02:53:59.084Z,8.10
2019-04-04T02:56:05.754Z,9.20
2019-04-04T02:58:15.099Z,9.05
2019-04-04T03:00:20.915Z,9.75
2019-04-04T03:02:27.604Z,9.90
2019-04-04T03:04:34.385Z,9.55
2019-04-04T03:06:41.033Z,9.30
2019-04-04T03:08:47.896Z,10.08
2019-04-04T03:10:54.659Z,8.75
2019-04-04T03:13:01.307Z,8.88
2019-04-04T03:15:10.248Z,10.40
2019-04-04T03:19:22.756Z,9.15
2019-04-04T03:21:29.512Z,9.60
2019-04-04T03:23:36.198Z,9.28
2019-04-04T03:25:44.670Z,9.08
2019-04-04T03:27:51.416Z,9.60
2019-04-04T03:29:58.381Z,8.95
2019-04-04T03:32:05.162Z,10.15
2019-04-04T03:34:12.891Z,10.43
2019-04-04T03:36:20.125Z,9.78
2019-04-04T03:38:26.881Z,11.00
2019-04-04T03:40:33.604Z,9.68
2019-04-04T03:42:44.057Z,9.00
2019-04-04T03:44:52.850Z,11.10
2019-04-04T03:46:57.202Z,9.03
2019-04-04T03:49:03.971Z,9.80
2019-04-04T03:51:10.760Z,8.83
2019-04-04T03:53:18.615Z,10.55
2019-04-04T03:55:27.369Z,9.75
2019-04-04T03:57:33.843Z,9.70
2019-04-04T03:59:40.524Z,10.63
2019-04-04T04:01:47.293Z,8.68
2019-04-04T04:03:55.507Z,9.60
2019-04-04T04:06:02.687Z,9.38
2019-04-04T04:09:29.500Z,9.95
2019-04-04T04:11:37.444Z,10.35
2019-04-04T04:13:49.010Z,9.55
2019-04-04T04:15:56.219Z,8.65
2019-04-04T04:18:02.973Z,10.25
2019-04-04T04:20:09.741Z,9.03
2019-04-04T04:22:19.300Z,8.85
2019-04-04T04:24:26.745Z,8.85
2019-04-04T04:26:33.483Z,9.75
2019-04-04T04:28:40.248Z,8.43
2019-04-04T04:30:47.001Z,9.85
2019-04-04T04:32:57.040Z,10.13
2019-04-04T04:35:02.277Z,8.53
2019-04-04T04:37:09.044Z,9.68
2019-04-04T04:39:16.956Z,8.85
2019-04-04T04:41:23.767Z,9.45
2019-04-04T04:43:33.561Z,8.80
2019-04-04T04:45:41.724Z,9.43
2019-04-04T04:47:48.559Z,9.60
2019-04-04T04:49:55.695Z,9.55
2019-04-04T04:52:02.536Z,9.65
2019-04-04T04:54:09.229Z,9.38
2019-04-04T04:56:17.520Z,9.45
2019-04-04T04:58:24.361Z,9.53
2019-04-04T05:00:31.349Z,9.38
2019-04-04T05:02:38.170Z,9.20
2019-04-04T05:04:45.809Z,8.48
2019-04-04T05:06:54.526Z,8.90
2019-04-04T05:09:01.651Z,9.38
2019-04-04T05:11:09.495Z,9.20
2019-04-04T05:13:16.208Z,10.35
2019-04-04T05:15:22.946Z,10.43
2019-04-04T05:17:29.691Z,9.40
2019-04-04T05:19:36.416Z,10.53
2019-04-04T05:21:43.158Z,10.08
2019-04-04T05:23:49.897Z,9.45
2019-04-04T05:25:56.656Z,9.30
2019-04-04T05:28:06.061Z,9.70
2019-04-04T05:30:12.051Z,10.05
2019-04-04T05:32:21.037Z,9.83
2019-04-04T05:34:28.336Z,10.13
2019-04-04T05:36:36.747Z,9.65
2019-04-04T05:38:46.874Z,10.03
2019-04-04T05:40:53.267Z,10.43
2019-04-04T05:43:03.914Z,10.40
2019-04-04T05:45:13.950Z,9.15
2019-04-04T05:47:19.036Z,10.48
2019-04-04T05:49:25.789Z,10.75
2019-04-04T05:51:32.602Z,10.25
2019-04-04T05:53:39.271Z,9.93
2019-04-04T05:55:45.961Z,10.30
2019-04-04T05:57:52.710Z,10.45
2019-04-04T05:59:59.451Z,11.78
2019-04-04T06:02:06.205Z,9.75
2019-04-04T06:04:12.988Z,10.32
2019-04-04T06:06:21.002Z,10.38
2019-04-04T06:08:29.508Z,9.77
2019-04-04T06:10:36.296Z,10.43
2019-04-04T06:12:42.990Z,10.55
2019-04-04T06:14:49.717Z,10.30
2019-04-04T06:16:56.605Z,10.23
2019-04-04T06:19:03.277Z,9.35
2019-04-04T06:21:11.072Z,10.65
2019-04-04T06:23:20.446Z,9.68
2019-04-04T06:25:26.201Z,10.25
2019-04-04T06:27:32.938Z,9.90
2019-04-04T06:29:39.645Z,9.40
2019-04-04T06:31:46.425Z,10.23
2019-04-04T06:33:53.115Z,11.12
2019-04-04T06:36:00.009Z,11.12
2019-04-04T06:38:06.985Z,10.15
2019-04-04T06:40:13.936Z,11.25
2019-04-04T06:42:21.827Z,10.25
2019-04-04T06:44:29.597Z,10.28
2019-04-04T06:46:36.268Z,10.85
2019-04-04T06:48:43.042Z,11.10
2019-04-04T06:50:49.929Z,10.85
2019-04-04T06:52:56.829Z,12.47
2019-04-04T06:55:04.684Z,11.50
2019-04-04T06:57:11.715Z,10.60
2019-04-04T06:59:18.448Z,11.18
2019-04-04T07:01:25.475Z,11.12
2019-04-04T07:03:32.203Z,11.10
2019-04-04T07:05:39.034Z,11.25
2019-04-04T07:07:45.825Z,11.08
2019-04-04T07:09:52.496Z,11.25
2019-04-04T07:11:59.261Z,10.60
2019-04-04T07:14:06.426Z,12.10
2019-04-04T07:16:13.187Z,11.45
2019-04-04T07:18:19.928Z,11.97
2019-04-04T07:20:28.376Z,13.48
2019-04-04T07:22:35.154Z,12.78
2019-04-04T07:24:41.906Z,12.28
2019-04-04T07:26:48.703Z,11.85
2019-04-04T07:28:55.421Z,11.20
2019-04-04T07:31:02.534Z,11.68
2019-04-04T07:33:12.698Z,12.03
2019-04-04T07:35:21.068Z,11.45
2019-04-04T07:37:28.057Z,11.50
2019-04-04T07:39:34.882Z,11.38
2019-04-04T07:41:44.763Z,12.55
2019-04-04T07:46:01.358Z,11.90
2019-04-04T07:48:07.581Z,16.93
2019-04-04T07:50:14.615Z,14.65
2019-04-04T07:52:21.441Z,11.53
2019-04-04T07:54:28.312Z,13.15
2019-04-04T07:56:35.422Z,11.08
2019-04-04T07:58:42.123Z,11.20
2019-04-04T08:00:48.938Z,11.25
2019-04-04T08:02:56.800Z,11.97
2019-04-04T08:05:03.988Z,11.93
2019-04-04T08:07:10.731Z,11.93
2019-04-04T08:09:17.598Z,11.65
2019-04-04T08:11:24.306Z,11.75
2019-04-04T08:13:31.084Z,11.63
2019-04-04T08:15:37.845Z,11.75
2019-04-04T08:17:44.743Z,11.88
2019-04-04T08:19:59.511Z,10.63
2019-04-04T08:22:01.080Z,11.83
2019-04-04T08:24:09.491Z,11.63
2019-04-04T08:26:16.799Z,11.97
2019-04-04T08:28:23.460Z,12.00
2019-04-04T08:30:30.319Z,11.33
2019-04-04T08:32:37.283Z,11.30
2019-04-04T08:34:43.978Z,10.32
2019-04-04T08:36:50.682Z,10.80
2019-04-04T08:38:57.517Z,11.95
2019-04-04T08:41:04.201Z,11.43
2019-04-04T08:43:10.975Z,17.62
2019-04-04T08:45:17.822Z,11.57
2019-04-04T08:47:25.199Z,11.78
2019-04-04T08:49:32.109Z,11.30
2019-04-04T08:51:38.775Z,10.72
2019-04-04T08:53:45.557Z,11.80
2019-04-04T08:55:52.345Z,12.07
2019-04-04T08:57:59.451Z,12.58
2019-04-04T09:00:08.714Z,11.48
2019-04-04T09:02:15.558Z,12.15
2019-04-04T09:04:24.231Z,12.33
2019-04-04T09:06:31.080Z,12.28
2019-04-04T09:08:37.980Z,10.80
2019-04-04T09:10:44.656Z,11.95
2019-04-04T09:12:51.390Z,11.40
2019-04-04T09:14:59.871Z,12.15
2019-04-04T09:17:06.600Z,12.25
2019-04-04T09:19:13.354Z,11.40
2019-04-04T09:21:20.067Z,11.08
2019-04-04T09:23:26.856Z,12.45
2019-04-04T09:25:33.649Z,11.63
2019-04-04T09:27:40.705Z,11.38
2019-04-04T09:29:47.470Z,11.60
2019-04-04T09:31:55.393Z,12.00
2019-04-04T09:34:02.181Z,11.93
2019-04-04T09:36:08.927Z,11.15
2019-04-04T09:38:15.622Z,14.80
2019-04-04T09:40:22.324Z,14.18
2019-04-04T09:42:30.411Z,12.33
2019-04-04T09:44:37.110Z,13.07
2019-04-04T09:46:43.896Z,10.93
2019-04-04T09:48:50.710Z,12.88
2019-04-04T09:50:57.672Z,12.03
2019-04-04T09:53:04.563Z,11.65
2019-04-04T09:55:12.723Z,12.53
2019-04-04T09:57:19.409Z,12.60
2019-04-04T09:59:26.324Z,11.35
2019-04-04T10:01:33.213Z,11.30
2019-04-04T10:03:39.968Z,12.20
2019-04-04T10:05:47.450Z,12.00
2019-04-04T10:07:54.405Z,11.75
2019-04-04T10:10:01.248Z,12.03
2019-04-04T10:12:09.254Z,10.85
2019-04-04T10:14:16.010Z,11.40
2019-04-04T10:16:24.435Z,11.03
2019-04-04T10:18:31.236Z,11.45
2019-04-04T10:20:38.211Z,11.50
2019-04-04T10:22:44.896Z,12.18
2019-04-04T10:24:51.738Z,11.33
2019-04-04T10:26:58.429Z,11.40
2019-04-04T10:29:05.196Z,10.95
2019-04-04T10:31:13.452Z,10.95
2019-04-04T10:33:20.133Z,12.35
2019-04-04T10:35:26.881Z,11.00
2019-04-04T10:37:33.742Z,12.93
2019-04-04T10:39:40.527Z,14.53
2019-04-04T10:41:50.846Z,13.48
2019-04-04T10:43:57.763Z,11.43
2019-04-04T10:46:04.571Z,12.45
2019-04-04T10:48:11.669Z,11.28
2019-04-04T10:50:18.547Z,11.55
2019-04-04T10:52:25.419Z,11.18
2019-04-04T10:54:32.313Z,12.78
2019-04-04T10:56:39.185Z,11.88
2019-04-04T10:58:45.940Z,11.85
2019-04-04T11:00:53.832Z,11.03
2019-04-04T11:03:00.685Z,11.18
2019-04-04T11:05:08.595Z,11.45
2019-04-04T11:07:15.301Z,12.28
2019-04-04T11:09:23.250Z,11.05
2019-04-04T11:11:30.012Z,11.80
2019-04-04T11:13:37.934Z,11.22
2019-04-04T11:15:44.775Z,11.85
2019-04-04T11:17:51.611Z,10.90
2019-04-04T11:19:58.433Z,11.03
2019-04-04T11:22:07.170Z,11.83
2019-04-04T11:24:13.962Z,11.38
2019-04-04T11:26:20.776Z,11.60
2019-04-04T11:28:27.490Z,11.68
2019-04-04T11:30:35.318Z,10.55
2019-04-04T11:32:43.314Z,11.78
2019-04-04T11:34:53.498Z,11.15
2019-04-04T11:36:58.552Z,12.33
2019-04-04T11:39:06.944Z,12.05
2019-04-04T11:41:14.501Z,10.65
2019-04-04T11:43:21.179Z,11.48
2019-04-04T11:45:27.925Z,11.30
2019-04-04T11:47:34.754Z,11.05
2019-04-04T11:49:41.604Z,11.60
2019-04-04T11:51:48.460Z,11.70
2019-04-04T11:53:57.681Z,11.38
2019-04-04T11:56:04.548Z,11.60
2019-04-04T11:58:12.933Z,10.72
2019-04-04T12:00:24.204Z,11.05
2019-04-04T12:02:32.737Z,12.23
2019-04-04T12:04:39.816Z,10.38
2019-04-04T12:06:47.262Z,11.75
2019-04-04T12:08:54.596Z,11.75
2019-04-04T12:11:01.621Z,12.15
2019-04-04T12:13:21.352Z,11.75
2019-04-04T12:15:21.609Z,11.35
2019-04-04T12:17:28.787Z,11.35
2019-04-04T12:19:36.099Z,11.55
2019-04-04T12:21:42.743Z,11.48
2019-04-04T12:23:51.577Z,11.45
2019-04-04T12:25:58.838Z,11.75
2019-04-04T12:28:05.978Z,11.68
2019-04-04T12:30:13.133Z,11.68
2019-04-04T12:32:19.842Z,11.68
2019-04-04T12:34:26.705Z,12.23
2019-04-04T12:36:33.465Z,10.98
2019-04-04T12:38:40.602Z,10.93
2019-04-04T12:40:47.422Z,12.37
2019-04-04T12:42:54.312Z,11.12
2019-04-04T12:45:01.888Z,12.30
2019-04-04T12:47:10.162Z,12.37
2019-04-04T12:49:16.827Z,11.70
2019-04-04T12:51:23.746Z,11.68
2019-04-04T12:53:32.624Z,10.60
2019-04-04T12:55:40.272Z,12.03
2019-04-04T12:57:47.872Z,12.70
2019-04-04T12:59:54.548Z,11.50
2019-04-04T13:02:01.459Z,11.30
2019-04-04T13:04:08.736Z,11.55
2019-04-04T13:06:15.472Z,12.07
2019-04-04T13:08:22.251Z,11.85
2019-04-04T13:10:33.382Z,11.53
2019-04-04T13:12:38.661Z,11.68
2019-04-04T13:14:45.504Z,12.15
2019-04-04T13:16:53.159Z,12.07
2019-04-04T13:19:00.212Z,11.73
2019-04-04T13:21:07.126Z,11.85
2019-04-04T13:23:13.990Z,12.33
2019-04-04T13:25:21.855Z,11.68
2019-04-04T13:27:28.817Z,11.70
2019-04-04T13:29:35.610Z,12.43
2019-04-04T13:31:42.421Z,11.50
2019-04-04T13:33:50.079Z,12.25
2019-04-04T13:35:56.882Z,11.95
2019-04-04T13:38:03.591Z,12.65
2019-04-04T13:40:11.245Z,11.57
2019-04-04T13:42:18.815Z,13.43
2019-04-04T13:44:25.570Z,11.40
2019-04-04T13:46:32.336Z,11.97
2019-04-04T13:48:39.217Z,12.35
2019-04-04T13:50:46.286Z,12.60
2019-04-04T13:52:55.821Z,13.10
2019-04-04T13:55:05.125Z,12.55
2019-04-04T13:57:12.666Z,11.12
2019-04-04T13:59:19.339Z,11.50
2019-04-04T14:01:26.297Z,12.93
2019-04-04T14:03:33.546Z,12.30
2019-04-04T14:05:40.235Z,13.13
2019-04-04T14:07:47.010Z,9.60
2019-04-04T14:09:57.210Z,11.68
2019-04-04T14:12:05.495Z,12.68
2019-04-04T14:14:12.196Z,12.85
2019-04-04T14:16:19.546Z,12.73
2019-04-04T14:18:39.010Z,12.95
2019-04-04T14:20:35.688Z,13.13
2019-04-04T14:22:42.451Z,13.00
2019-04-04T14:24:49.293Z,12.15
2019-04-04T14:26:56.221Z,13.38
2019-04-04T14:29:04.497Z,13.15
2019-04-04T14:31:12.449Z,12.30
2019-04-04T14:33:21.715Z,13.50
2019-04-04T14:35:28.670Z,13.05
2019-04-04T14:37:35.447Z,13.35
2019-04-04T14:39:42.230Z,12.80
2019-04-04T14:41:49.007Z,12.28
2019-04-04T14:43:55.928Z,12.93
2019-04-04T14:46:04.305Z,12.18
2019-04-04T14:48:11.741Z,12.15
2019-04-04T14:50:18.515Z,12.15
2019-04-04T14:52:25.293Z,12.90
2019-04-04T14:54:31.965Z,12.20
2019-04-04T14:56:38.703Z,11.45
2019-04-04T14:58:45.573Z,12.73
2019-04-04T15:00:52.488Z,12.85
2019-04-04T15:02:59.252Z,11.97
2019-04-04T15:05:07.434Z,12.80
2019-04-04T15:07:14.776Z,11.43
2019-04-04T15:09:21.824Z,12.95
2019-04-04T15:11:29.382Z,12.58
2019-04-04T15:13:36.058Z,12.05
2019-04-04T15:16:10.877Z,12.23
2019-04-04T15:18:17.645Z,12.78
2019-04-04T15:20:25.468Z,12.03
2019-04-04T15:22:35.118Z,11.57
2019-04-04T15:24:45.005Z,10.93
2019-04-04T15:26:52.214Z,11.90
2019-04-04T15:29:00.430Z,12.13
2019-04-04T15:31:09.626Z,12.23
2019-04-04T15:33:16.392Z,10.82
2019-04-04T15:35:23.112Z,13.55
2019-04-04T15:37:29.931Z,12.15
2019-04-04T15:39:36.621Z,11.80
2019-04-04T15:41:44.168Z,12.00
2019-04-04T15:43:50.889Z,11.93
2019-04-04T15:45:58.205Z,13.05
2019-04-04T15:48:05.045Z,12.50
2019-04-04T15:50:12.451Z,12.43
2019-04-04T15:52:20.308Z,12.10
2019-04-04T15:54:27.134Z,12.18
2019-04-04T15:56:36.699Z,11.75
2019-04-04T15:58:45.224Z,11.45
2019-04-04T16:00:52.254Z,12.35
2019-04-04T16:03:00.396Z,12.45
2019-04-04T16:05:09.575Z,11.63
2019-04-04T16:07:16.319Z,11.78
2019-04-04T16:09:23.243Z,12.40
2019-04-04T16:11:30.130Z,12.28
2019-04-04T16:13:37.816Z,12.03
2019-04-04T16:15:45.466Z,12.45
2019-04-04T16:17:52.537Z,11.85
2019-04-04T16:19:59.324Z,12.40
2019-04-04T16:22:06.544Z,12.55
2019-04-04T16:24:13.281Z,12.10
2019-04-04T16:26:20.045Z,12.15
2019-04-04T16:28:26.727Z,12.13
2019-04-04T16:30:34.959Z,10.95
2019-04-04T16:32:41.646Z,10.45
2019-04-04T16:34:48.371Z,11.22
2019-04-04T16:36:55.151Z,10.90
2019-04-04T16:39:01.894Z,11.40
2019-04-04T16:41:10.155Z,11.65
2019-04-04T16:43:16.920Z,11.57
2019-04-04T16:45:23.676Z,12.33
2019-04-04T16:47:30.407Z,11.18
2019-04-04T16:49:38.334Z,10.50
2019-04-04T16:51:45.394Z,10.78
2019-04-04T16:53:52.189Z,11.45
2019-04-04T16:55:58.879Z,10.35
2019-04-04T16:58:05.830Z,11.25
2019-04-04T17:00:14.685Z,10.88
2019-04-04T17:02:21.722Z,10.48
2019-04-04T17:04:28.488Z,11.40
2019-04-04T17:06:35.263Z,10.88
2019-04-04T17:08:41.978Z,11.00
2019-04-04T17:10:49.437Z,10.43
2019-04-04T17:12:56.981Z,11.12
2019-04-04T17:15:04.961Z,10.90
2019-04-04T17:17:13.739Z,11.30
2019-04-04T17:19:20.533Z,10.85
2019-04-04T17:21:27.319Z,10.60
2019-04-04T17:23:34.384Z,10.63
2019-04-04T17:25:42.525Z,11.87
2019-04-04T17:27:55.218Z,11.10
2019-04-04T17:30:13.764Z,11.30
2019-04-04T17:32:17.916Z,10.15
2019-04-04T17:34:25.071Z,9.75
2019-04-04T17:36:32.099Z,10.00
2019-04-04T17:38:40.414Z,9.63
2019-04-04T17:40:47.392Z,9.55
2019-04-04T17:42:57.072Z,9.73
2019-04-04T17:45:09.392Z,9.70
2019-04-04T17:47:16.969Z,9.15
2019-04-04T17:49:31.799Z,9.08
2019-04-04T17:51:36.644Z,10.08
2019-04-04T17:53:43.500Z,10.48
2019-04-04T17:55:50.630Z,9.93
2019-04-04T17:57:57.917Z,9.73
2019-04-04T18:00:19.831Z,9.65
2019-04-04T18:02:26.583Z,10.05
2019-04-04T18:04:34.802Z,10.00
2019-04-04T18:06:41.568Z,9.98
2019-04-04T18:08:49.371Z,9.38
2019-04-04T18:10:56.260Z,10.70
2019-04-04T18:13:03.005Z,9.60
2019-04-04T18:15:11.610Z,10.00
2019-04-04T18:17:19.699Z,10.38
2019-04-04T18:19:26.444Z,10.08
2019-04-04T18:21:33.210Z,10.20
2019-04-04T18:23:40.023Z,10.20
2019-04-04T18:25:47.086Z,10.80
2019-04-04T18:27:53.838Z,9.80
2019-04-04T18:30:00.580Z,9.78
2019-04-04T18:32:07.363Z,10.43
2019-04-04T18:34:15.533Z,10.95
2019-04-04T18:36:22.389Z,9.78
2019-04-04T18:38:30.058Z,9.88
2019-04-04T18:40:38.775Z,9.88
2019-04-04T18:42:53.085Z,10.75
2019-04-04T18:44:56.604Z,10.15
2019-04-04T18:47:04.158Z,9.78
2019-04-04T18:49:10.976Z,9.98
2019-04-04T18:51:17.734Z,10.75
2019-04-04T18:53:24.491Z,10.18
2019-04-04T18:55:31.678Z,11.08
2019-04-04T18:57:38.510Z,10.72
2019-04-04T18:59:45.277Z,10.38
2019-04-04T19:01:52.166Z,9.68
2019-04-04T19:03:59.332Z,9.68
2019-04-04T19:06:08.591Z,10.40
2019-04-04T19:08:17.168Z,9.48
2019-04-04T19:10:24.023Z,11.00
2019-04-04T19:12:30.764Z,10.25
2019-04-04T19:14:38.141Z,9.78
2019-04-04T19:16:47.362Z,10.53
2019-04-04T19:18:54.925Z,10.53
2019-04-04T19:21:02.841Z,10.23
2019-04-04T19:23:10.312Z,9.73
2019-04-04T19:25:17.212Z,10.40
2019-04-04T19:27:24.016Z,9.95
2019-04-04T19:29:31.645Z,10.32
2019-04-04T19:31:38.508Z,10.00
2019-04-04T19:33:48.698Z,9.55
2019-04-04T19:35:57.245Z,10.40
2019-04-04T19:38:03.987Z,10.08
2019-04-04T19:40:11.285Z,10.43
2019-04-04T19:42:18.051Z,10.13
2019-04-04T19:44:25.922Z,10.25
2019-04-04T19:46:37.321Z,10.30
2019-04-04T19:48:42.721Z,10.15
2019-04-04T19:50:53.617Z,9.83
2019-04-04T19:53:00.441Z,10.65
2019-04-04T19:55:07.688Z,9.73
2019-04-04T19:57:16.739Z,9.68
2019-04-04T19:59:23.916Z,9.98
2019-04-04T20:01:32.161Z,8.93
2019-04-04T20:03:38.931Z,10.40
2019-04-04T20:05:45.715Z,9.30
2019-04-04T20:07:52.390Z,9.30
2019-04-04T20:10:00.717Z,9.75
2019-04-04T20:12:07.501Z,10.00
2019-04-04T20:14:16.879Z,9.35
2019-04-04T20:16:25.182Z,9.73
2019-04-04T20:18:31.972Z,8.90
2019-04-04T20:20:40.202Z,9.80
2019-04-04T20:22:48.484Z,9.43
2019-04-04T20:25:02.752Z,9.65
2019-04-04T20:27:09.506Z,8.98
2019-04-04T20:29:16.261Z,9.78
2019-04-04T20:31:25.265Z,9.43
2019-04-04T20:33:32.034Z,9.73
2019-04-04T20:35:40.628Z,9.70
2019-04-04T20:37:47.934Z,9.88
2019-04-04T20:39:56.521Z,9.13
2019-04-04T20:42:03.318Z,9.25
2019-04-04T20:44:11.321Z,10.23
2019-04-04T20:46:18.072Z,9.13
2019-04-04T20:48:24.752Z,9.88
2019-04-04T20:50:34.150Z,10.20
2019-04-04T20:52:40.972Z,9.00
2019-04-04T20:54:48.018Z,9.98
2019-04-04T20:56:54.910Z,9.50
2019-04-04T20:59:01.659Z,8.88
2019-04-04T21:01:09.883Z,10.10
2019-04-04T21:03:16.657Z,10.67
2019-04-04T21:05:23.478Z,9.10
2019-04-04T21:07:30.501Z,9.13
2019-04-04T21:09:37.292Z,9.75
2019-04-04T21:11:44.050Z,10.08
2019-04-04T21:13:56.249Z,10.58
2019-04-04T21:16:00.722Z,9.10
2019-04-04T21:18:09.052Z,8.93
2019-04-04T21:20:15.754Z,9.53
2019-04-04T21:31:07.336Z,10.45
2019-04-04T21:33:17.115Z,10.60
2019-04-04T21:35:24.466Z,10.35
2019-04-04T21:37:31.346Z,10.13
2019-04-04T21:39:38.456Z,9.93
2019-04-04T21:41:45.128Z,10.20
2019-04-04T21:43:53.353Z,9.98
2019-04-04T21:46:01.292Z,9.10
2019-04-04T21:48:08.689Z,9.23
2019-04-04T21:50:18.328Z,10.45
2019-04-04T21:52:25.062Z,10.43
2019-04-04T21:54:31.755Z,9.10
2019-04-04T21:56:38.492Z,9.60
2019-04-04T21:58:45.285Z,9.63
2019-04-04T22:00:55.075Z,9.53
2019-04-04T22:03:03.340Z,9.08
2019-04-04T22:05:10.804Z,10.08
2019-04-04T22:07:17.568Z,10.25
2019-04-04T22:09:24.307Z,9.38
2019-04-04T22:11:30.983Z,9.25
2019-04-04T22:13:37.767Z,9.63
2019-04-04T22:15:45.823Z,10.00
2019-04-04T22:17:52.519Z,10.70
2019-04-04T22:19:59.353Z,9.70
2019-04-04T22:22:06.031Z,9.83
2019-04-04T22:24:12.778Z,10.43
2019-04-04T22:26:19.565Z,9.83
2019-04-04T22:28:26.312Z,8.70
2019-04-04T22:30:33.048Z,9.33
2019-04-04T22:32:39.824Z,10.23
2019-04-04T22:34:46.560Z,8.35
2019-04-04T22:36:53.291Z,9.73
2019-04-04T22:39:00.076Z,9.50
2019-04-04T22:41:06.770Z,9.80
2019-04-04T22:43:13.435Z,9.60
2019-04-04T22:45:20.124Z,10.05
2019-04-04T22:47:26.924Z,9.70
2019-04-04T22:49:34.410Z,10.80
2019-04-04T22:51:41.182Z,10.05
2019-04-04T22:53:47.920Z,9.68
2019-04-04T22:55:54.661Z,9.93
2019-04-04T22:58:02.995Z,9.65
2019-04-04T23:00:10.259Z,9.55
2019-04-04T23:02:18.466Z,9.43
2019-04-04T23:04:25.331Z,8.63
2019-04-04T23:06:32.101Z,10.00
2019-04-04T23:08:38.783Z,9.15
2019-04-04T23:10:45.543Z,9.58
2019-04-04T23:12:52.236Z,9.75
2019-04-04T23:14:58.953Z,9.15
2019-04-04T23:19:48.242Z,9.65
2019-04-04T23:21:55.004Z,9.40
2019-04-04T23:24:02.155Z,10.53
2019-04-04T23:26:08.848Z,9.13
2019-04-04T23:28:15.543Z,8.73
2019-04-04T23:30:22.310Z,9.28
2019-04-04T23:32:29.038Z,9.38
2019-04-04T23:34:35.730Z,9.55
2019-04-04T23:36:42.480Z,8.98
2019-04-04T23:38:49.218Z,9.93
2019-04-04T23:40:55.987Z,9.13
2019-04-04T23:43:02.882Z,9.08
2019-04-04T23:45:10.242Z,10.18
2019-04-04T23:47:18.260Z,9.23
2019-04-04T23:49:25.090Z,10.75
2019-04-04T23:51:31.875Z,10.58
2019-04-04T23:53:38.689Z,10.50
2019-04-04T23:55:47.123Z,9.35
2019-04-04T23:57:54.779Z,9.83
